createdAt,value
2022-10-22T00:03:00.306Z,4.40
2022-10-22T00:06:03.301Z,4.32
2022-10-22T00:09:08.792Z,3.95
2022-10-22T00:12:13.396Z,3.60
2022-10-22T00:15:16.158Z,4.27
2022-10-22T00:18:18.910Z,3.80
2022-10-22T00:21:21.868Z,3.67
2022-10-22T00:24:25.454Z,4.00
2022-10-22T00:27:28.308Z,4.07
2022-10-22T00:30:31.215Z,4.20
2022-10-22T00:33:34.546Z,4.07
2022-10-22T00:36:39.498Z,3.60
2022-10-22T00:39:42.297Z,4.50
2022-10-22T00:42:45.973Z,3.75
2022-10-22T00:45:52.309Z,3.57
2022-10-22T00:49:04.200Z,3.67
2022-10-22T00:52:07.427Z,3.75
2022-10-22T00:55:11.748Z,4.20
2022-10-22T00:58:16.324Z,4.00
2022-10-22T01:01:27.068Z,4.00
2022-10-22T01:04:40.992Z,3.60
2022-10-22T01:07:51.314Z,3.92
2022-10-22T01:11:12.000Z,3.90
2022-10-22T01:14:35.465Z,3.70
2022-10-22T01:17:55.764Z,3.50
2022-10-22T01:21:27.421Z,3.93
2022-10-22T01:24:35.774Z,3.95
2022-10-22T01:27:54.312Z,3.78
2022-10-22T01:31:00.530Z,4.10
2022-10-22T01:34:04.666Z,4.10
2022-10-22T01:37:09.156Z,3.87
2022-10-22T01:40:15.160Z,3.78
2022-10-22T01:43:18.088Z,4.03
2022-10-22T01:46:29.880Z,3.78
2022-10-22T01:49:53.733Z,4.03
2022-10-22T01:53:10.378Z,3.50
2022-10-22T01:56:31.171Z,3.92
2022-10-22T02:00:01.765Z,3.13
2022-10-22T02:03:30.589Z,3.85
2022-10-22T02:06:34.649Z,3.90
2022-10-22T02:09:38.508Z,3.80
2022-10-22T02:12:43.567Z,3.65
2022-10-22T02:15:48.333Z,3.80
2022-10-22T02:18:55.866Z,3.80
2022-10-22T02:21:58.930Z,3.60
2022-10-22T02:25:01.768Z,4.23
2022-10-22T02:28:10.341Z,3.95
2022-10-22T02:31:21.580Z,3.78
2022-10-22T02:34:27.819Z,3.72
2022-10-22T02:37:31.165Z,3.47
2022-10-22T02:40:34.285Z,3.80
2022-10-22T02:43:51.906Z,4.03
2022-10-22T02:46:54.714Z,3.42
2022-10-22T02:50:00.200Z,3.92
2022-10-22T02:53:03.110Z,3.67
2022-10-22T02:56:06.233Z,3.73
2022-10-22T02:59:08.981Z,3.45
2022-10-22T03:02:11.836Z,3.50
2022-10-22T03:05:14.551Z,3.50
2022-10-22T03:08:17.652Z,3.80
2022-10-22T03:11:20.324Z,3.23
2022-10-22T03:14:23.026Z,3.35
2022-10-22T03:17:25.674Z,3.90
2022-10-22T03:20:28.452Z,3.30
2022-10-22T03:23:32.105Z,4.00
2022-10-22T03:26:35.201Z,3.57
2022-10-22T03:32:59.884Z,3.20
2022-10-22T03:36:10.557Z,3.35
2022-10-22T03:39:15.116Z,3.30
2022-10-22T03:42:17.872Z,3.00
2022-10-22T03:45:21.278Z,3.15
2022-10-22T03:48:25.483Z,3.30
2022-10-22T03:51:29.028Z,3.15
2022-10-22T03:54:31.842Z,3.77
2022-10-22T03:57:34.883Z,3.23
2022-10-22T04:00:37.703Z,3.50
2022-10-22T04:03:44.046Z,3.80
2022-10-22T04:06:49.659Z,3.72
2022-10-22T04:09:58.566Z,3.33
2022-10-22T04:13:02.139Z,3.17
2022-10-22T04:16:33.270Z,3.08
2022-10-22T04:19:36.387Z,3.30
2022-10-22T04:22:39.313Z,3.10
2022-10-22T04:25:42.091Z,3.00
2022-10-22T04:28:48.946Z,3.13
2022-10-22T04:31:54.088Z,2.78
2022-10-22T04:34:57.105Z,3.10
2022-10-22T04:37:59.910Z,3.20
2022-10-22T04:41:30.173Z,3.70
2022-10-22T04:44:33.251Z,2.87
2022-10-22T04:47:35.966Z,3.55
2022-10-22T04:50:38.909Z,3.50
2022-10-22T04:53:47.667Z,2.90
2022-10-22T04:56:50.398Z,2.83
2022-10-22T04:59:54.361Z,3.10
2022-10-22T05:02:57.619Z,3.42
2022-10-22T05:06:03.434Z,3.47
2022-10-22T05:09:08.877Z,3.33
2022-10-22T05:12:11.792Z,3.00
2022-10-22T05:15:14.527Z,3.07
2022-10-22T05:18:19.049Z,2.92
2022-10-22T05:21:33.161Z,3.10
2022-10-22T05:24:37.370Z,3.13
2022-10-22T05:27:40.618Z,3.50
2022-10-22T05:30:57.528Z,3.30
2022-10-22T05:34:00.272Z,3.35
2022-10-22T05:37:03.015Z,3.03
2022-10-22T05:40:19.473Z,3.60
2022-10-22T05:43:30.078Z,3.13
2022-10-22T05:46:35.628Z,3.03
2022-10-22T05:49:38.538Z,3.08
2022-10-22T05:52:41.343Z,3.25
2022-10-22T05:55:48.090Z,3.17
2022-10-22T05:58:51.538Z,3.33
2022-10-22T06:01:54.323Z,3.20
2022-10-22T06:04:57.045Z,2.83
2022-10-22T06:08:01.056Z,3.30
2022-10-22T06:11:03.772Z,3.03
2022-10-22T06:14:06.454Z,3.20
2022-10-22T06:17:09.647Z,3.20
2022-10-22T06:20:13.510Z,3.22
2022-10-22T06:23:19.697Z,3.17
2022-10-22T06:26:23.950Z,3.17
2022-10-22T06:29:26.649Z,3.70
2022-10-22T06:32:29.318Z,3.10
2022-10-22T06:35:36.904Z,3.40
2022-10-22T06:38:40.630Z,2.90
2022-10-22T06:41:43.401Z,2.90
2022-10-22T06:44:46.243Z,3.03
2022-10-22T06:47:49.138Z,3.30
2022-10-22T06:50:54.715Z,3.60
2022-10-22T06:54:00.841Z,2.70
2022-10-22T06:57:03.631Z,2.90
2022-10-22T07:00:07.584Z,3.00
2022-10-22T07:03:13.984Z,3.23
2022-10-22T07:06:16.674Z,2.70
2022-10-22T07:09:19.648Z,2.63
2022-10-22T07:12:22.507Z,3.03
2022-10-22T07:15:25.296Z,3.13
2022-10-22T07:18:28.197Z,3.03
2022-10-22T07:21:31.951Z,3.08
2022-10-22T07:24:34.633Z,3.70
2022-10-22T07:27:37.787Z,3.17
2022-10-22T07:30:40.658Z,2.90
2022-10-22T07:33:43.597Z,2.80
2022-10-22T07:36:46.356Z,2.47
2022-10-22T07:39:57.033Z,2.83
2022-10-22T07:43:02.777Z,3.10
2022-10-22T07:46:06.887Z,3.13
2022-10-22T07:49:12.821Z,3.40
2022-10-22T07:52:15.709Z,3.60
2022-10-22T07:55:18.996Z,3.00
2022-10-22T07:58:25.606Z,2.75
2022-10-22T08:01:28.795Z,2.90
2022-10-22T08:04:32.303Z,3.17
2022-10-22T08:07:35.016Z,2.45
2022-10-22T08:10:38.530Z,2.90
2022-10-22T08:13:45.069Z,3.13
2022-10-22T08:16:50.421Z,2.50
2022-10-22T08:19:53.430Z,2.63
2022-10-22T08:22:56.249Z,2.70
2022-10-22T08:26:03.128Z,2.75
2022-10-22T08:29:07.172Z,3.00
2022-10-22T08:32:10.563Z,2.87
2022-10-22T08:35:15.433Z,2.83
2022-10-22T08:38:23.958Z,2.60
2022-10-22T08:41:46.968Z,2.50
2022-10-22T08:45:30.682Z,2.95
2022-10-22T08:48:57.555Z,2.90
2022-10-22T08:52:00.734Z,2.73
2022-10-22T08:55:04.559Z,3.28
2022-10-22T08:58:30.231Z,2.97
2022-10-22T09:01:43.020Z,3.05
2022-10-22T09:04:55.017Z,3.00
2022-10-22T09:07:58.429Z,2.60
2022-10-22T09:11:14.574Z,2.80
2022-10-22T09:14:21.083Z,2.60
2022-10-22T09:17:35.531Z,2.80
2022-10-22T09:21:10.168Z,2.67
2022-10-22T09:24:33.345Z,2.33
2022-10-22T09:27:36.438Z,2.67
2022-10-22T09:30:40.427Z,2.70
2022-10-22T09:33:45.637Z,2.47
2022-10-22T09:36:57.064Z,2.57
2022-10-22T09:40:15.082Z,3.13
2022-10-22T09:43:18.282Z,2.95
2022-10-22T09:46:37.404Z,2.88
2022-10-22T09:50:06.963Z,2.65
2022-10-22T09:53:26.065Z,2.63
2022-10-22T09:56:36.937Z,3.07
2022-10-22T09:59:41.932Z,2.45
2022-10-22T10:02:44.676Z,3.00
2022-10-22T10:05:49.749Z,2.83
2022-10-22T10:08:52.456Z,3.10
2022-10-22T10:12:22.944Z,3.17
2022-10-22T10:15:29.220Z,2.70
2022-10-22T10:18:41.493Z,3.03
2022-10-22T10:21:56.287Z,2.78
2022-10-22T10:25:31.850Z,2.70
2022-10-22T10:29:08.359Z,2.67
2022-10-22T10:32:50.109Z,2.95
2022-10-22T10:35:55.357Z,3.05
2022-10-22T10:39:24.195Z,2.75
2022-10-22T10:42:44.413Z,2.63
2022-10-22T10:46:23.397Z,2.50
2022-10-22T10:49:30.196Z,2.72
2022-10-22T10:52:54.593Z,3.17
2022-10-22T10:56:24.025Z,2.67
2022-10-22T10:59:35.734Z,2.80
2022-10-22T11:02:53.865Z,2.97
2022-10-22T11:06:01.777Z,3.22
2022-10-22T11:09:39.582Z,2.70
2022-10-22T11:12:45.807Z,3.03
2022-10-22T11:16:00.871Z,2.43
2022-10-22T11:19:22.540Z,2.90
2022-10-22T11:22:50.533Z,3.03
2022-10-22T11:26:05.645Z,2.70
2022-10-22T11:29:13.879Z,2.60
2022-10-22T11:32:20.474Z,2.90
2022-10-22T11:35:27.324Z,2.60
2022-10-22T11:38:32.872Z,2.85
2022-10-22T11:41:38.694Z,2.88
2022-10-22T11:45:00.907Z,2.67
2022-10-22T11:48:17.721Z,3.00
2022-10-22T11:51:39.228Z,2.67
2022-10-22T11:54:44.949Z,3.00
2022-10-22T11:57:48.767Z,2.58
2022-10-22T12:00:51.349Z,2.70
2022-10-22T12:04:16.520Z,2.80
2022-10-22T12:07:34.740Z,2.90
2022-10-22T12:10:55.674Z,3.08
2022-10-22T12:14:29.683Z,2.65
2022-10-22T12:17:32.361Z,2.40
2022-10-22T12:20:39.942Z,2.50
2022-10-22T12:23:46.630Z,2.67
2022-10-22T12:26:53.005Z,2.97
2022-10-22T12:29:59.810Z,2.65
2022-10-22T12:33:05.876Z,2.45
2022-10-22T12:36:16.523Z,2.90
2022-10-22T12:39:26.518Z,2.80
2022-10-22T12:42:30.278Z,2.60
2022-10-22T12:45:34.376Z,2.63
2022-10-22T12:48:39.732Z,2.58
2022-10-22T12:51:43.081Z,3.30
2022-10-22T12:54:47.971Z,2.67
2022-10-22T12:57:50.680Z,2.88
2022-10-22T13:00:59.269Z,2.75
2022-10-22T13:04:40.139Z,2.72
2022-10-22T13:07:47.831Z,2.53
2022-10-22T13:10:53.824Z,2.57
2022-10-22T13:14:14.827Z,2.75
2022-10-22T13:17:21.678Z,2.40
2022-10-22T13:20:24.545Z,2.88
2022-10-22T13:23:28.980Z,2.70
2022-10-22T13:26:37.403Z,3.07
2022-10-22T13:29:42.049Z,2.50
2022-10-22T13:32:54.757Z,3.03
2022-10-22T13:35:57.551Z,2.70
2022-10-22T13:39:00.216Z,2.67
2022-10-22T13:42:02.800Z,2.30
2022-10-22T13:45:06.420Z,2.50
2022-10-22T13:48:14.813Z,2.65
2022-10-22T13:51:21.134Z,2.80
2022-10-22T13:54:25.087Z,2.70
2022-10-22T13:57:27.896Z,2.47
2022-10-22T14:00:31.301Z,2.05
2022-10-22T14:03:35.884Z,2.53
2022-10-22T14:06:38.720Z,2.47
2022-10-22T14:09:41.829Z,2.40
2022-10-22T14:12:46.487Z,2.87
2022-10-22T14:15:53.027Z,2.47
2022-10-22T14:18:56.103Z,2.58
2022-10-22T14:21:58.734Z,2.35
2022-10-22T14:25:01.375Z,2.50
2022-10-22T14:28:10.505Z,2.90
2022-10-22T14:31:13.598Z,2.53
2022-10-22T14:34:17.095Z,2.50
2022-10-22T14:37:20.801Z,2.53
2022-10-22T14:40:24.401Z,3.20
2022-10-22T14:43:29.979Z,2.70
2022-10-22T14:46:32.825Z,2.60
2022-10-22T14:49:35.826Z,2.67
2022-10-22T14:52:39.688Z,2.88
2022-10-22T14:55:50.689Z,2.70
2022-10-22T14:58:58.310Z,2.70
2022-10-22T15:02:05.166Z,2.72
2022-10-22T15:05:12.489Z,2.60
2022-10-22T15:08:15.622Z,2.67
2022-10-22T15:11:22.387Z,2.70
2022-10-22T15:14:30.505Z,2.50
2022-10-22T15:17:34.502Z,2.80
2022-10-22T15:20:37.639Z,2.80
2022-10-22T15:23:40.827Z,2.47
2022-10-22T15:26:43.823Z,2.70
2022-10-22T15:29:47.143Z,2.97
2022-10-22T15:32:55.503Z,3.25
2022-10-22T15:36:09.056Z,2.50
2022-10-22T15:39:15.683Z,2.40
2022-10-22T15:42:25.174Z,2.93
2022-10-22T15:45:29.517Z,2.80
2022-10-22T15:48:32.605Z,2.95
2022-10-22T15:51:36.405Z,2.55
2022-10-22T15:54:41.176Z,3.20
2022-10-22T15:57:45.112Z,2.90
2022-10-22T16:00:48.993Z,3.07
2022-10-22T16:04:00.075Z,2.78
2022-10-22T16:07:05.578Z,3.22
2022-10-22T16:10:12.878Z,2.90
2022-10-22T16:13:16.230Z,2.90
2022-10-22T16:16:19.078Z,2.40
2022-10-22T16:19:23.900Z,2.75
2022-10-22T16:22:27.298Z,2.65
2022-10-22T16:25:30.691Z,2.70
2022-10-22T16:28:35.208Z,2.70
2022-10-22T16:31:40.712Z,2.90
2022-10-22T16:34:47.103Z,3.05
2022-10-22T16:37:50.203Z,2.63
2022-10-22T16:40:53.834Z,2.42
2022-10-22T16:43:57.525Z,2.93
2022-10-22T16:47:01.170Z,2.73
2022-10-22T16:50:05.689Z,2.88
2022-10-22T16:53:09.495Z,2.80
2022-10-22T16:56:18.468Z,2.92
2022-10-22T16:59:30.294Z,2.40
2022-10-22T17:02:35.471Z,2.77
2022-10-22T17:05:44.151Z,3.25
2022-10-22T17:08:48.950Z,2.78
2022-10-22T17:11:52.839Z,2.58
2022-10-22T17:14:56.182Z,2.33
2022-10-22T17:18:01.028Z,3.33
2022-10-22T17:21:06.834Z,2.90
2022-10-22T17:24:12.037Z,2.70
2022-10-22T17:27:16.288Z,3.20
2022-10-22T17:30:25.090Z,2.93
2022-10-22T17:33:32.360Z,2.73
2022-10-22T17:36:36.939Z,2.80
2022-10-22T17:39:41.339Z,2.47
2022-10-22T17:42:46.077Z,2.65
2022-10-22T17:45:50.379Z,2.80
2022-10-22T17:48:58.260Z,3.00
2022-10-22T17:52:02.247Z,2.78
2022-10-22T17:55:06.298Z,2.60
2022-10-22T17:58:10.349Z,2.92
2022-10-22T18:01:21.707Z,2.53
2022-10-22T18:04:26.747Z,3.10
2022-10-22T18:07:30.548Z,2.90
2022-10-22T18:10:43.872Z,2.60
2022-10-22T18:13:51.504Z,2.67
2022-10-22T18:17:06.898Z,2.50
2022-10-22T18:20:13.900Z,2.67
2022-10-22T18:23:30.166Z,2.83
2022-10-22T18:26:34.387Z,2.58
2022-10-22T18:29:41.248Z,2.45
2022-10-22T18:32:45.068Z,2.60
2022-10-22T18:35:50.540Z,2.70
2022-10-22T18:39:00.697Z,2.80
2022-10-22T18:42:06.672Z,2.42
2022-10-22T18:48:33.505Z,2.50
2022-10-22T18:51:37.277Z,2.83
2022-10-22T18:54:42.436Z,2.75
2022-10-22T18:57:46.828Z,2.95
2022-10-22T19:00:52.416Z,2.58
2022-10-22T19:03:57.308Z,2.40
2022-10-22T19:07:06.078Z,2.50
2022-10-22T19:10:13.314Z,2.60
2022-10-22T19:13:19.716Z,2.50
2022-10-22T19:16:24.238Z,2.55
2022-10-22T19:19:28.306Z,2.47
2022-10-22T19:22:35.557Z,2.20
2022-10-22T19:25:40.321Z,2.83
2022-10-22T19:28:47.180Z,2.60
2022-10-22T19:31:51.489Z,2.63
2022-10-22T19:34:54.816Z,2.53
2022-10-22T19:37:58.779Z,2.80
2022-10-22T19:41:03.504Z,2.25
2022-10-22T19:44:10.100Z,2.80
2022-10-22T19:47:14.610Z,2.70
2022-10-22T19:50:18.974Z,2.40
2022-10-22T19:53:23.716Z,2.43
2022-10-22T19:56:32.977Z,2.10
2022-10-22T19:59:38.374Z,2.45
2022-10-22T20:02:43.615Z,2.97
2022-10-22T20:05:48.954Z,2.80
2022-10-22T20:08:56.025Z,2.73
2022-10-22T20:12:00.611Z,2.72
2022-10-22T20:15:05.343Z,2.80
2022-10-22T20:18:10.750Z,2.60
2022-10-22T20:21:16.596Z,2.67
2022-10-22T20:24:20.175Z,2.13
2022-10-22T20:27:23.489Z,3.03
2022-10-22T20:30:27.256Z,2.35
2022-10-22T20:33:31.694Z,2.53
2022-10-22T20:36:41.165Z,2.53
2022-10-22T20:39:47.292Z,2.70
2022-10-22T20:42:50.959Z,2.42
2022-10-22T20:45:54.294Z,2.15
2022-10-22T20:49:02.888Z,2.85
2022-10-22T20:52:06.565Z,2.47
2022-10-22T20:55:10.416Z,2.20
2022-10-22T20:58:15.050Z,2.33
2022-10-22T21:01:24.371Z,2.30
2022-10-22T21:04:32.395Z,2.55
2022-10-22T21:07:53.784Z,2.10
2022-10-22T21:10:57.015Z,2.70
2022-10-22T21:14:00.447Z,2.08
2022-10-22T21:17:03.735Z,2.15
2022-10-22T21:20:06.982Z,2.28
2022-10-22T21:23:09.643Z,2.40
2022-10-22T21:26:12.938Z,2.63
2022-10-22T21:29:15.629Z,2.58
2022-10-22T21:32:18.244Z,2.08
2022-10-22T21:35:20.939Z,2.45
2022-10-22T21:38:25.311Z,2.07
2022-10-22T21:41:28.033Z,2.00
2022-10-22T21:44:30.564Z,1.85
2022-10-22T21:47:33.474Z,2.60
2022-10-22T21:50:41.021Z,2.30
2022-10-22T21:53:44.198Z,2.40
2022-10-22T21:56:47.848Z,2.23
2022-10-22T21:59:50.773Z,2.03
2022-10-22T22:02:53.404Z,2.10
2022-10-22T22:06:05.326Z,1.90
2022-10-22T22:09:07.952Z,2.50
2022-10-22T22:12:10.633Z,2.10
2022-10-22T22:15:13.234Z,2.58
2022-10-22T22:18:15.838Z,2.25
2022-10-22T22:21:20.949Z,2.63
2022-10-22T22:24:23.829Z,2.27
2022-10-22T22:27:26.493Z,2.50
2022-10-22T22:30:29.240Z,2.17
2022-10-22T22:33:32.858Z,2.47
2022-10-22T22:36:40.510Z,2.10
2022-10-22T22:39:43.155Z,2.33
2022-10-22T22:42:45.897Z,2.13
2022-10-22T22:45:48.529Z,2.20
2022-10-22T22:48:51.462Z,2.30
2022-10-22T22:51:54.295Z,2.13
2022-10-22T22:54:56.904Z,2.10
2022-10-22T22:58:02.468Z,2.27
2022-10-22T23:01:18.718Z,2.42
2022-10-22T23:04:23.880Z,2.10
2022-10-22T23:07:26.522Z,1.88
2022-10-22T23:10:29.236Z,2.23
2022-10-22T23:13:32.370Z,1.87
2022-10-22T23:16:37.215Z,2.25
2022-10-22T23:19:40.030Z,2.20
2022-10-22T23:22:42.833Z,2.30
2022-10-22T23:25:45.766Z,2.20
2022-10-22T23:28:48.757Z,1.77
2022-10-22T23:31:51.994Z,1.95
2022-10-22T23:34:54.772Z,2.13
2022-10-22T23:37:57.528Z,2.40
2022-10-22T23:41:00.622Z,2.10
2022-10-22T23:44:05.386Z,1.93
2022-10-22T23:47:08.412Z,2.20
2022-10-22T23:50:13.683Z,1.50
2022-10-22T23:53:16.470Z,1.90
2022-10-22T23:56:19.202Z,1.97
2022-10-22T23:59:21.958Z,2.20
